Arca — PDHT — position and weather

sailwx.info

Track history (hours):
 
Tides and Currents Weather Stations Pressure Air Temp Water Temp Dewpoint Dewpoint Depression Visibility Wind Speed Wind Dir Waves Ship Positions

Oceanographic research ship Arca (Netherlands)

Detailed information on ship capabilities available from University of Delaware's Ocean Information Center.

Last reported at 2014-Oct-31 21:33 UTC. Time now 2014-Oct-31 21:39 UTC.
Position N 52°06' E 004°16'.

Length 83 m; draft 4.8 m.

Type: Law enforcement. MMSI: 244454000.

Date/timePositionNaut miles runAvg speedWind from/ knotsBaromVisibWave heightAir tempDewpointWater temp
2014-Oct-31 21:33N 52°06' E 004°16'0 0.0
2014-Oct-31 20:21N 52°06' E 004°16'0 0.0
2014-Oct-31 19:30N 52°06' E 004°16'0 0.0
2014-Oct-31 18:30N 52°06' E 004°16'0 0.0
2014-Oct-31 17:33N 52°06' E 004°16'0 0.0
2014-Oct-31 16:33N 52°06' E 004°16'0 0.0
2014-Oct-31 15:30N 52°06' E 004°16'0 0.0
2014-Oct-31 14:33N 52°06' E 004°16'0 0.0
2014-Oct-31 13:33N 52°06' E 004°16'0 0.0
2014-Oct-31 12:30N 52°06' E 004°16'0 0.0
2014-Oct-31 11:33N 52°06' E 004°16'0 0.0
2014-Oct-31 10:33N 52°06' E 004°16'0 0.0
2014-Oct-31 09:33N 52°06' E 004°16'0 0.0
2014-Oct-31 08:33N 52°06' E 004°16'0 0.0
2014-Oct-31 07:30N 52°06' E 004°16'0 0.0
2014-Oct-31 06:30N 52°06' E 004°16'0 0.0
2014-Oct-31 05:30N 52°06' E 004°16'0 0.0
2014-Oct-31 04:33N 52°06' E 004°16'0 0.0
2014-Oct-31 03:33N 52°06' E 004°16'0 0.0
2014-Oct-31 02:33N 52°06' E 004°16'0 0.0
2014-Oct-31 01:33N 52°06' E 004°16'0 0.0
2014-Oct-31 00:30N 52°06' E 004°16'0 0.0
2014-Oct-30 23:30N 52°06' E 004°16'0 0.0
2014-Oct-30 22:33N 52°06' E 004°16'0 0.0
2014-Oct-30 21:33N 52°06' E 004°16'0 0.0
2014-Oct-30 20:24N 52°06' E 004°16'0 0.0
2014-Oct-30 19:18N 52°06' E 004°16'0 0.0
2014-Oct-30 18:30N 52°06' E 004°16'0 0.0
2014-Oct-30 17:33N 52°06' E 004°16'0 0.0
2014-Oct-30 16:33N 52°06' E 004°16'0 0.0
2014-Oct-30 15:33N 52°06' E 004°16'4 4.1
2014-Oct-30 14:33N 52°03' E 004°10'2 2.4
2014-Oct-30 13:33N 52°06' E 004°09'0 0.1
2014-Oct-30 12:33N 52°06' E 004°08'0 0.0
2014-Oct-30 11:31N 52°05' E 004°08'2 2.0
2014-Oct-30 10:32N 52°04' E 004°10'0 0.2
2014-Oct-30 09:33N 52°04' E 004°11'0 0.0
2014-Oct-30 08:33N 52°04' E 004°11'3 3.5
2014-Oct-30 07:33N 52°06' E 004°15'0 0.4
2014-Oct-30 06:32N 52°06' E 004°16'0 0.0
2014-Oct-30 05:32N 52°06' E 004°16'0 0.0
2014-Oct-30 04:32N 52°06' E 004°16'0 0.0
2014-Oct-30 03:32N 52°06' E 004°16'0 0.0
2014-Oct-30 02:32N 52°06' E 004°16'0 0.0
2014-Oct-30 01:32N 52°06' E 004°16'0 0.0
2014-Oct-30 00:32N 52°06' E 004°16'0 0.0
2014-Oct-29 23:32N 52°06' E 004°16'0 0.0
2014-Oct-29 22:32N 52°06' E 004°16'0 0.0
2014-Oct-29 21:32N 52°06' E 004°16'0 0.0
2014-Oct-29 20:32N 52°06' E 004°16'0 0.0
2014-Oct-29 19:32N 52°06' E 004°16'0 0.0
2014-Oct-29 18:32N 52°06' E 004°16'0 0.0
2014-Oct-29 17:32N 52°06' E 004°16'0 0.0
2014-Oct-29 16:32N 52°06' E 004°16'0 0.0
2014-Oct-29 15:32N 52°06' E 004°16'0 0.0
2014-Oct-29 14:32N 52°06' E 004°16'0 0.0
2014-Oct-29 13:32N 52°06' E 004°16'0 0.0
2014-Oct-29 12:32N 52°06' E 004°16'0 0.0
2014-Oct-29 11:32N 52°06' E 004°16'0 0.0
2014-Oct-29 10:32N 52°06' E 004°16'0 0.0
2014-Oct-29 09:32N 52°06' E 004°16'0 0.0
2014-Oct-29 08:32N 52°06' E 004°16'0 0.0
2014-Oct-29 07:32N 52°06' E 004°16'0 0.0
2014-Oct-29 06:29N 52°06' E 004°16'0 0.0
2014-Oct-29 05:32N 52°06' E 004°16'0 0.0
2014-Oct-29 04:32N 52°06' E 004°16'0 0.0
2014-Oct-29 03:32N 52°06' E 004°16'0 0.0
2014-Oct-29 02:32N 52°06' E 004°16'0 0.0
2014-Oct-29 01:32N 52°06' E 004°16'0 0.0
2014-Oct-29 00:32N 52°06' E 004°16'0 0.0
2014-Oct-28 23:32N 52°06' E 004°16'0 0.0
2014-Oct-28 22:32N 52°06' E 004°16'0 0.0
2014-Oct-28 21:32N 52°06' E 004°16'0 0.0
2014-Oct-28 20:32N 52°06' E 004°16'0 0.0
2014-Oct-28 19:32N 52°06' E 004°16'0 0.0
2014-Oct-28 18:32N 52°06' E 004°16'0 0.0
2014-Oct-28 17:32N 52°06' E 004°16'0 0.0
2014-Oct-28 16:32N 52°06' E 004°16'0 0.0
2014-Oct-28 15:34N 52°06' E 004°16'0 0.0
2014-Oct-28 14:34N 52°06' E 004°16'0 0.0
2014-Oct-28 13:34N 52°06' E 004°16'8 7.9
2014-Oct-28 12:34N 52°14' E 004°17'1110.6
2014-Oct-28 11:34N 52°24' E 004°24'6 6.0
2014-Oct-28 10:34N 52°29' E 004°29'1 0.9
2014-Oct-28 09:33N 52°28' E 004°30'1 0.8
2014-Oct-28 08:33N 52°28' E 004°32'0 0.1
2014-Oct-28 07:33N 52°28' E 004°32'5 5.0
2014-Oct-28 06:33N 52°30' E 004°24'2 2.0
2014-Oct-28 05:32N 52°31' E 004°21'0 0.0
2014-Oct-28 04:32N 52°31' E 004°21'0 0.0
2014-Oct-28 03:32N 52°31' E 004°21'0 0.0
2014-Oct-28 02:29N 52°31' E 004°21'0 0.1
2014-Oct-28 01:32N 52°31' E 004°21'0 0.1
2014-Oct-28 00:32N 52°31' E 004°21'0 0.0
2014-Oct-27 23:32N 52°31' E 004°21'0 0.1
2014-Oct-27 22:33N 52°31' E 004°21'0 0.1
2014-Oct-27 21:33N 52°31' E 004°21'0 0.0
2014-Oct-27 20:33N 52°31' E 004°21'0 0.0
2014-Oct-27 19:33N 52°31' E 004°21'7 7.0
2014-Oct-27 18:34N 52°28' E 004°32'1 1.3
2014-Oct-27 17:34N 52°28' E 004°29'1 1.4
2014-Oct-27 16:34N 52°28' E 004°27'4 3.6
2014-Oct-27 15:33N 52°28' E 004°33'0 0.0
2014-Oct-27 14:33N 52°28' E 004°33'0 0.0
2014-Oct-27 13:33N 52°28' E 004°33'0 0.1
2014-Oct-27 12:33N 52°28' E 004°33'6 6.1
2014-Oct-27 11:33N 52°24' E 004°26'1111.3
2014-Oct-27 10:33N 52°13' E 004°19'8 7.7
2014-Oct-27 09:33N 52°06' E 004°16'0 0.0
2014-Oct-27 08:33N 52°06' E 004°16'0 0.0
2014-Oct-27 07:30N 52°06' E 004°16'0 0.0
2014-Oct-27 06:33N 52°06' E 004°16'0 0.0
2014-Oct-27 05:33N 52°06' E 004°16'0 0.0
2014-Oct-27 04:33N 52°06' E 004°16'0 0.0
2014-Oct-27 03:33N 52°06' E 004°16'0 0.0
2014-Oct-27 02:24N 52°06' E 004°16'0 0.0
2014-Oct-27 01:24N 52°06' E 004°16'0 0.0
2014-Oct-27 00:33N 52°06' E 004°16'0 0.0
2014-Oct-26 23:33N 52°06' E 004°16'0 0.0
2014-Oct-26 22:30N 52°06' E 004°16'0 0.0
2014-Oct-26 21:30N 52°06' E 004°16'0 0.0
2014-Oct-26 20:30N 52°06' E 004°16'0 0.0
2014-Oct-26 19:33N 52°06' E 004°16'0 0.0
2014-Oct-26 18:33N 52°06' E 004°16'0 0.0
2014-Oct-26 17:33N 52°06' E 004°16'0 0.0
2014-Oct-26 16:33N 52°06' E 004°16'0 0.0
2014-Oct-26 15:33N 52°06' E 004°16'0 0.0
2014-Oct-26 14:33N 52°06' E 004°16'0 0.0
2014-Oct-26 13:33N 52°06' E 004°16'0 0.0
2014-Oct-26 12:27N 52°06' E 004°16'0 0.0
2014-Oct-26 11:30N 52°06' E 004°16'0 0.0
2014-Oct-26 10:33N 52°06' E 004°16'0 0.0
2014-Oct-26 09:33N 52°06' E 004°16'0 0.0
2014-Oct-26 08:30N 52°06' E 004°16'0 0.0
2014-Oct-26 07:33N 52°06' E 004°16'0 0.0
2014-Oct-26 06:33N 52°06' E 004°16'0 0.0
2014-Oct-26 05:33N 52°06' E 004°16'0 0.0
2014-Oct-26 04:33N 52°06' E 004°16'0 0.0
2014-Oct-26 03:33N 52°06' E 004°16'0 0.0
2014-Oct-26 02:30N 52°06' E 004°16'0 0.0
2014-Oct-26 01:33N 52°06' E 004°16'0 0.0
2014-Oct-26 00:30N 52°06' E 004°16'0 0.0
2014-Oct-25 23:33N 52°06' E 004°16'0 0.0
2014-Oct-25 22:30N 52°06' E 004°16'0 0.0
2014-Oct-25 21:33N 52°06' E 004°16'0 0.0
2014-Oct-25 20:30N 52°06' E 004°16'0 0.0
2014-Oct-25 19:33N 52°06' E 004°16'0 0.0
2014-Oct-25 18:30N 52°06' E 004°16'0 0.0
2014-Oct-25 17:33N 52°06' E 004°16'0 0.0
2014-Oct-25 16:30N 52°06' E 004°16'0 0.0
2014-Oct-25 15:33N 52°06' E 004°16'0 0.0
2014-Oct-25 14:33N 52°06' E 004°16'0 0.0
2014-Oct-25 13:33N 52°06' E 004°16'0 0.0
2014-Oct-25 12:33N 52°06' E 004°16'0 0.0
2014-Oct-25 11:33N 52°06' E 004°16'0 0.0
2014-Oct-25 10:33N 52°06' E 004°16'0 0.0
2014-Oct-25 09:33N 52°06' E 004°16'0 0.0
2014-Oct-25 08:33N 52°06' E 004°16'0 0.0
2014-Oct-25 07:33N 52°06' E 004°16'0 0.0
2014-Oct-25 06:33N 52°06' E 004°16'0 0.0
2014-Oct-25 05:33N 52°06' E 004°16'0 0.0
2014-Oct-25 04:33N 52°06' E 004°16'0 0.0
2014-Oct-25 03:30N 52°06' E 004°16'0 0.0
2014-Oct-25 02:33N 52°06' E 004°16'0 0.0
2014-Oct-25 01:33N 52°06' E 004°16'0 0.0
2014-Oct-25 00:33N 52°06' E 004°16'0 0.0
2014-Oct-24 23:30N 52°06' E 004°16'0 0.0
2014-Oct-24 22:33N 52°06' E 004°16'0 0.0
2014-Oct-24 21:33N 52°06' E 004°16'0 0.0
2014-Oct-24 20:30N 52°06' E 004°16'0 0.0
2014-Oct-24 19:30N 52°06' E 004°16'0 0.0
2014-Oct-24 18:33N 52°06' E 004°16'0 0.0
2014-Oct-24 17:33N 52°06' E 004°16'0 0.0
2014-Oct-24 16:30N 52°06' E 004°16'0 0.0
2014-Oct-24 15:30N 52°06' E 004°16'0 0.0
2014-Oct-24 14:30N 52°06' E 004°16'0 0.0
2014-Oct-24 13:33N 52°06' E 004°16'0 0.0
2014-Oct-24 12:30N 52°06' E 004°16'0 0.0
2014-Oct-24 11:33N 52°06' E 004°16'0 0.0
2014-Oct-24 10:33N 52°06' E 004°16'0 0.0
2014-Oct-24 09:33N 52°06' E 004°16'0 0.0
2014-Oct-24 08:33N 52°06' E 004°16'0 0.0
2014-Oct-24 07:33N 52°06' E 004°16'0 0.0
2014-Oct-24 06:33N 52°06' E 004°16'0 0.0
2014-Oct-24 05:33N 52°06' E 004°16'0 0.0
2014-Oct-24 04:33N 52°06' E 004°16'0 0.0
2014-Oct-24 03:33N 52°06' E 004°16'0 0.0
2014-Oct-24 02:33N 52°06' E 004°16'0 0.0
2014-Oct-24 01:33N 52°06' E 004°16'0 0.0
2014-Oct-24 00:33N 52°06' E 004°16'0 0.0
2014-Oct-23 23:30N 52°06' E 004°16'0 0.0
2014-Oct-23 22:30N 52°06' E 004°16'0 0.0
2014-Oct-23 21:30N 52°06' E 004°16'0 0.0
2014-Oct-23 20:33N 52°06' E 004°16'0 0.0
2014-Oct-23 19:33N 52°06' E 004°16'0 0.0
2014-Oct-23 18:33N 52°06' E 004°16'0 0.0
2014-Oct-23 17:33N 52°06' E 004°16'0 0.0
2014-Oct-23 16:33N 52°06' E 004°16'0 0.0
2014-Oct-23 15:30N 52°06' E 004°16'0 0.0
2014-Oct-23 14:33N 52°06' E 004°16'0 0.0
2014-Oct-23 13:33N 52°06' E 004°16'0 0.0
2014-Oct-23 12:30N 52°06' E 004°16'0 0.0
2014-Oct-23 11:33N 52°06' E 004°16'0 0.0
2014-Oct-23 10:33N 52°06' E 004°16'0 0.0
2014-Oct-23 09:24N 52°06' E 004°16'0 0.0
2014-Oct-23 08:30N 52°06' E 004°16'0 0.0
2014-Oct-23 07:27N 52°06' E 004°16'0 0.0
2014-Oct-23 06:15N 52°06' E 004°16'0 0.0
2014-Oct-23 05:30N 52°06' E 004°16'0 0.0
2014-Oct-23 04:30N 52°06' E 004°16'0 0.0
2014-Oct-23 03:30N 52°06' E 004°16'0 0.0
2014-Oct-23 02:30N 52°06' E 004°16'0 0.0
2014-Oct-23 01:30N 52°06' E 004°16'0 0.0
2014-Oct-23 00:30N 52°06' E 004°16'0 0.0
2014-Oct-22 23:33N 52°06' E 004°16'0 0.0
2014-Oct-22 22:33N 52°06' E 004°16'0 0.0
2014-Oct-22 21:33N 52°06' E 004°16'0 0.0
2014-Oct-22 20:33N 52°06' E 004°16'0 0.0
2014-Oct-22 19:30N 52°06' E 004°16'0 0.0
2014-Oct-22 18:30N 52°06' E 004°16'0 0.0
2014-Oct-22 17:27N 52°06' E 004°16'0 0.0
2014-Oct-22 16:30N 52°06' E 004°16'0 0.0
2014-Oct-22 15:30N 52°06' E 004°16'0 0.0
2014-Oct-22 14:30N 52°06' E 004°16'0 0.0
2014-Oct-22 13:33N 52°06' E 004°16'0 0.0
2014-Oct-22 12:33N 52°06' E 004°16'0 0.0
2014-Oct-22 11:30N 52°06' E 004°16'0 0.0
2014-Oct-22 10:33N 52°06' E 004°16'0 0.0
2014-Oct-22 09:24N 52°06' E 004°16'0 0.0
2014-Oct-22 08:33N 52°06' E 004°16'0 0.0
2014-Oct-22 07:33N 52°06' E 004°16'0 0.0
2014-Oct-22 06:30N 52°06' E 004°16'0 0.0
2014-Oct-22 05:30N 52°06' E 004°16'0 0.0
2014-Oct-22 04:33N 52°06' E 004°16'0 0.0
2014-Oct-22 03:30N 52°06' E 004°16'0 0.0
2014-Oct-22 02:33N 52°06' E 004°16'0 0.0
2014-Oct-22 01:24N 52°06' E 004°16'0 0.0
2014-Oct-22 00:30N 52°06' E 004°16'0 0.0
2014-Oct-21 23:33N 52°06' E 004°16'0 0.0
2014-Oct-21 22:33N 52°06' E 004°16'0 0.0
2014-Oct-21 21:33N 52°06' E 004°16'  
Track history (hours):
 
Tides and Currents Weather Stations Pressure Air Temp Water Temp Dewpoint Dewpoint Depression Visibility Wind Speed Wind Dir Waves Ship Positions

Oceanographic research ship Arca (Netherlands)

Detailed information on ship capabilities available from University of Delaware's Ocean Information Center.

Last reported at 2014-Oct-31 21:33 UTC. Time now 2014-Oct-31 21:39 UTC.
Position N 52°06' E 004°16'.

Length 83 m; draft 4.8 m.

Type: Law enforcement. MMSI: 244454000.

Date/timePositionNaut miles runAvg speedWind from/ knotsBaromVisibWave heightAir tempDewpointWater temp
2014-Oct-31 21:33N 52°06' E 004°16'0 0.0
2014-Oct-31 20:21N 52°06' E 004°16'0 0.0
2014-Oct-31 19:30N 52°06' E 004°16'0 0.0
2014-Oct-31 18:30N 52°06' E 004°16'0 0.0
2014-Oct-31 17:33N 52°06' E 004°16'0 0.0
2014-Oct-31 16:33N 52°06' E 004°16'0 0.0
2014-Oct-31 15:30N 52°06' E 004°16'0 0.0
2014-Oct-31 14:33N 52°06' E 004°16'0 0.0
2014-Oct-31 13:33N 52°06' E 004°16'0 0.0
2014-Oct-31 12:30N 52°06' E 004°16'0 0.0
2014-Oct-31 11:33N 52°06' E 004°16'0 0.0
2014-Oct-31 10:33N 52°06' E 004°16'0 0.0
2014-Oct-31 09:33N 52°06' E 004°16'0 0.0
2014-Oct-31 08:33N 52°06' E 004°16'0 0.0
2014-Oct-31 07:30N 52°06' E 004°16'0 0.0
2014-Oct-31 06:30N 52°06' E 004°16'0 0.0
2014-Oct-31 05:30N 52°06' E 004°16'0 0.0
2014-Oct-31 04:33N 52°06' E 004°16'0 0.0
2014-Oct-31 03:33N 52°06' E 004°16'0 0.0
2014-Oct-31 02:33N 52°06' E 004°16'0 0.0
2014-Oct-31 01:33N 52°06' E 004°16'0 0.0
2014-Oct-31 00:30N 52°06' E 004°16'0 0.0
2014-Oct-30 23:30N 52°06' E 004°16'0 0.0
2014-Oct-30 22:33N 52°06' E 004°16'0 0.0
2014-Oct-30 21:33N 52°06' E 004°16'0 0.0
2014-Oct-30 20:24N 52°06' E 004°16'0 0.0
2014-Oct-30 19:18N 52°06' E 004°16'0 0.0
2014-Oct-30 18:30N 52°06' E 004°16'0 0.0
2014-Oct-30 17:33N 52°06' E 004°16'0 0.0
2014-Oct-30 16:33N 52°06' E 004°16'0 0.0
2014-Oct-30 15:33N 52°06' E 004°16'4 4.1
2014-Oct-30 14:33N 52°03' E 004°10'2 2.4
2014-Oct-30 13:33N 52°06' E 004°09'0 0.1
2014-Oct-30 12:33N 52°06' E 004°08'0 0.0
2014-Oct-30 11:31N 52°05' E 004°08'2 2.0
2014-Oct-30 10:32N 52°04' E 004°10'0 0.2
2014-Oct-30 09:33N 52°04' E 004°11'0 0.0
2014-Oct-30 08:33N 52°04' E 004°11'3 3.5
2014-Oct-30 07:33N 52°06' E 004°15'0 0.4
2014-Oct-30 06:32N 52°06' E 004°16'0 0.0
2014-Oct-30 05:32N 52°06' E 004°16'0 0.0
2014-Oct-30 04:32N 52°06' E 004°16'0 0.0
2014-Oct-30 03:32N 52°06' E 004°16'0 0.0
2014-Oct-30 02:32N 52°06' E 004°16'0 0.0
2014-Oct-30 01:32N 52°06' E 004°16'0 0.0
2014-Oct-30 00:32N 52°06' E 004°16'0 0.0
2014-Oct-29 23:32N 52°06' E 004°16'0 0.0
2014-Oct-29 22:32N 52°06' E 004°16'0 0.0
2014-Oct-29 21:32N 52°06' E 004°16'0 0.0
2014-Oct-29 20:32N 52°06' E 004°16'0 0.0
2014-Oct-29 19:32N 52°06' E 004°16'0 0.0
2014-Oct-29 18:32N 52°06' E 004°16'0 0.0
2014-Oct-29 17:32N 52°06' E 004°16'0 0.0
2014-Oct-29 16:32N 52°06' E 004°16'0 0.0
2014-Oct-29 15:32N 52°06' E 004°16'0 0.0
2014-Oct-29 14:32N 52°06' E 004°16'0 0.0
2014-Oct-29 13:32N 52°06' E 004°16'0 0.0
2014-Oct-29 12:32N 52°06' E 004°16'0 0.0
2014-Oct-29 11:32N 52°06' E 004°16'0 0.0
2014-Oct-29 10:32N 52°06' E 004°16'0 0.0
2014-Oct-29 09:32N 52°06' E 004°16'0 0.0
2014-Oct-29 08:32N 52°06' E 004°16'0 0.0
2014-Oct-29 07:32N 52°06' E 004°16'0 0.0
2014-Oct-29 06:29N 52°06' E 004°16'0 0.0
2014-Oct-29 05:32N 52°06' E 004°16'0 0.0
2014-Oct-29 04:32N 52°06' E 004°16'0 0.0
2014-Oct-29 03:32N 52°06' E 004°16'0 0.0
2014-Oct-29 02:32N 52°06' E 004°16'0 0.0
2014-Oct-29 01:32N 52°06' E 004°16'0 0.0
2014-Oct-29 00:32N 52°06' E 004°16'0 0.0
2014-Oct-28 23:32N 52°06' E 004°16'0 0.0
2014-Oct-28 22:32N 52°06' E 004°16'0 0.0
2014-Oct-28 21:32N 52°06' E 004°16'0 0.0
2014-Oct-28 20:32N 52°06' E 004°16'0 0.0
2014-Oct-28 19:32N 52°06' E 004°16'0 0.0
2014-Oct-28 18:32N 52°06' E 004°16'0 0.0
2014-Oct-28 17:32N 52°06' E 004°16'0 0.0
2014-Oct-28 16:32N 52°06' E 004°16'0 0.0
2014-Oct-28 15:34N 52°06' E 004°16'0 0.0
2014-Oct-28 14:34N 52°06' E 004°16'0 0.0
2014-Oct-28 13:34N 52°06' E 004°16'8 7.9
2014-Oct-28 12:34N 52°14' E 004°17'1110.6
2014-Oct-28 11:34N 52°24' E 004°24'6 6.0
2014-Oct-28 10:34N 52°29' E 004°29'1 0.9
2014-Oct-28 09:33N 52°28' E 004°30'1 0.8
2014-Oct-28 08:33N 52°28' E 004°32'0 0.1
2014-Oct-28 07:33N 52°28' E 004°32'5 5.0
2014-Oct-28 06:33N 52°30' E 004°24'2 2.0
2014-Oct-28 05:32N 52°31' E 004°21'0 0.0
2014-Oct-28 04:32N 52°31' E 004°21'0 0.0
2014-Oct-28 03:32N 52°31' E 004°21'0 0.0
2014-Oct-28 02:29N 52°31' E 004°21'0 0.1
2014-Oct-28 01:32N 52°31' E 004°21'0 0.1
2014-Oct-28 00:32N 52°31' E 004°21'0 0.0
2014-Oct-27 23:32N 52°31' E 004°21'0 0.1
2014-Oct-27 22:33N 52°31' E 004°21'0 0.1
2014-Oct-27 21:33N 52°31' E 004°21'0 0.0
2014-Oct-27 20:33N 52°31' E 004°21'0 0.0
2014-Oct-27 19:33N 52°31' E 004°21'7 7.0
2014-Oct-27 18:34N 52°28' E 004°32'1 1.3
2014-Oct-27 17:34N 52°28' E 004°29'1 1.4
2014-Oct-27 16:34N 52°28' E 004°27'4 3.6
2014-Oct-27 15:33N 52°28' E 004°33'0 0.0
2014-Oct-27 14:33N 52°28' E 004°33'0 0.0
2014-Oct-27 13:33N 52°28' E 004°33'0 0.1
2014-Oct-27 12:33N 52°28' E 004°33'6 6.1
2014-Oct-27 11:33N 52°24' E 004°26'1111.3
2014-Oct-27 10:33N 52°13' E 004°19'8 7.7
2014-Oct-27 09:33N 52°06' E 004°16'0 0.0
2014-Oct-27 08:33N 52°06' E 004°16'0 0.0
2014-Oct-27 07:30N 52°06' E 004°16'0 0.0
2014-Oct-27 06:33N 52°06' E 004°16'0 0.0
2014-Oct-27 05:33N 52°06' E 004°16'0 0.0
2014-Oct-27 04:33N 52°06' E 004°16'0 0.0
2014-Oct-27 03:33N 52°06' E 004°16'0 0.0
2014-Oct-27 02:24N 52°06' E 004°16'0 0.0
2014-Oct-27 01:24N 52°06' E 004°16'0 0.0
2014-Oct-27 00:33N 52°06' E 004°16'0 0.0
2014-Oct-26 23:33N 52°06' E 004°16'0 0.0
2014-Oct-26 22:30N 52°06' E 004°16'0 0.0
2014-Oct-26 21:30N 52°06' E 004°16'0 0.0
2014-Oct-26 20:30N 52°06' E 004°16'0 0.0
2014-Oct-26 19:33N 52°06' E 004°16'0 0.0
2014-Oct-26 18:33N 52°06' E 004°16'0 0.0
2014-Oct-26 17:33N 52°06' E 004°16'0 0.0
2014-Oct-26 16:33N 52°06' E 004°16'0 0.0
2014-Oct-26 15:33N 52°06' E 004°16'0 0.0
2014-Oct-26 14:33N 52°06' E 004°16'0 0.0
2014-Oct-26 13:33N 52°06' E 004°16'0 0.0
2014-Oct-26 12:27N 52°06' E 004°16'0 0.0
2014-Oct-26 11:30N 52°06' E 004°16'0 0.0
2014-Oct-26 10:33N 52°06' E 004°16'0 0.0
2014-Oct-26 09:33N 52°06' E 004°16'0 0.0
2014-Oct-26 08:30N 52°06' E 004°16'0 0.0
2014-Oct-26 07:33N 52°06' E 004°16'0 0.0
2014-Oct-26 06:33N 52°06' E 004°16'0 0.0
2014-Oct-26 05:33N 52°06' E 004°16'0 0.0
2014-Oct-26 04:33N 52°06' E 004°16'0 0.0
2014-Oct-26 03:33N 52°06' E 004°16'0 0.0
2014-Oct-26 02:30N 52°06' E 004°16'0 0.0
2014-Oct-26 01:33N 52°06' E 004°16'0 0.0
2014-Oct-26 00:30N 52°06' E 004°16'0 0.0
2014-Oct-25 23:33N 52°06' E 004°16'0 0.0
2014-Oct-25 22:30N 52°06' E 004°16'0 0.0
2014-Oct-25 21:33N 52°06' E 004°16'0 0.0
2014-Oct-25 20:30N 52°06' E 004°16'0 0.0
2014-Oct-25 19:33N 52°06' E 004°16'0 0.0
2014-Oct-25 18:30N 52°06' E 004°16'0 0.0
2014-Oct-25 17:33N 52°06' E 004°16'0 0.0
2014-Oct-25 16:30N 52°06' E 004°16'0 0.0
2014-Oct-25 15:33N 52°06' E 004°16'0 0.0
2014-Oct-25 14:33N 52°06' E 004°16'0 0.0
2014-Oct-25 13:33N 52°06' E 004°16'0 0.0
2014-Oct-25 12:33N 52°06' E 004°16'0 0.0
2014-Oct-25 11:33N 52°06' E 004°16'0 0.0
2014-Oct-25 10:33N 52°06' E 004°16'0 0.0
2014-Oct-25 09:33N 52°06' E 004°16'0 0.0
2014-Oct-25 08:33N 52°06' E 004°16'0 0.0
2014-Oct-25 07:33N 52°06' E 004°16'0 0.0
2014-Oct-25 06:33N 52°06' E 004°16'0 0.0
2014-Oct-25 05:33N 52°06' E 004°16'0 0.0
2014-Oct-25 04:33N 52°06' E 004°16'0 0.0
2014-Oct-25 03:30N 52°06' E 004°16'0 0.0
2014-Oct-25 02:33N 52°06' E 004°16'0 0.0
2014-Oct-25 01:33N 52°06' E 004°16'0 0.0
2014-Oct-25 00:33N 52°06' E 004°16'0 0.0
2014-Oct-24 23:30N 52°06' E 004°16'0 0.0
2014-Oct-24 22:33N 52°06' E 004°16'0 0.0
2014-Oct-24 21:33N 52°06' E 004°16'0 0.0
2014-Oct-24 20:30N 52°06' E 004°16'0 0.0
2014-Oct-24 19:30N 52°06' E 004°16'0 0.0
2014-Oct-24 18:33N 52°06' E 004°16'0 0.0
2014-Oct-24 17:33N 52°06' E 004°16'0 0.0
2014-Oct-24 16:30N 52°06' E 004°16'0 0.0
2014-Oct-24 15:30N 52°06' E 004°16'0 0.0
2014-Oct-24 14:30N 52°06' E 004°16'0 0.0
2014-Oct-24 13:33N 52°06' E 004°16'0 0.0
2014-Oct-24 12:30N 52°06' E 004°16'0 0.0
2014-Oct-24 11:33N 52°06' E 004°16'0 0.0
2014-Oct-24 10:33N 52°06' E 004°16'0 0.0
2014-Oct-24 09:33N 52°06' E 004°16'0 0.0
2014-Oct-24 08:33N 52°06' E 004°16'0 0.0
2014-Oct-24 07:33N 52°06' E 004°16'0 0.0
2014-Oct-24 06:33N 52°06' E 004°16'0 0.0
2014-Oct-24 05:33N 52°06' E 004°16'0 0.0
2014-Oct-24 04:33N 52°06' E 004°16'0 0.0
2014-Oct-24 03:33N 52°06' E 004°16'0 0.0
2014-Oct-24 02:33N 52°06' E 004°16'0 0.0
2014-Oct-24 01:33N 52°06' E 004°16'0 0.0
2014-Oct-24 00:33N 52°06' E 004°16'0 0.0
2014-Oct-23 23:30N 52°06' E 004°16'0 0.0
2014-Oct-23 22:30N 52°06' E 004°16'0 0.0
2014-Oct-23 21:30N 52°06' E 004°16'0 0.0
2014-Oct-23 20:33N 52°06' E 004°16'0 0.0
2014-Oct-23 19:33N 52°06' E 004°16'0 0.0
2014-Oct-23 18:33N 52°06' E 004°16'0 0.0
2014-Oct-23 17:33N 52°06' E 004°16'0 0.0
2014-Oct-23 16:33N 52°06' E 004°16'0 0.0
2014-Oct-23 15:30N 52°06' E 004°16'0 0.0
2014-Oct-23 14:33N 52°06' E 004°16'0 0.0
2014-Oct-23 13:33N 52°06' E 004°16'0 0.0
2014-Oct-23 12:30N 52°06' E 004°16'0 0.0
2014-Oct-23 11:33N 52°06' E 004°16'0 0.0
2014-Oct-23 10:33N 52°06' E 004°16'0 0.0
2014-Oct-23 09:24N 52°06' E 004°16'0 0.0
2014-Oct-23 08:30N 52°06' E 004°16'0 0.0
2014-Oct-23 07:27N 52°06' E 004°16'0 0.0
2014-Oct-23 06:15N 52°06' E 004°16'0 0.0
2014-Oct-23 05:30N 52°06' E 004°16'0 0.0
2014-Oct-23 04:30N 52°06' E 004°16'0 0.0
2014-Oct-23 03:30N 52°06' E 004°16'0 0.0
2014-Oct-23 02:30N 52°06' E 004°16'0 0.0
2014-Oct-23 01:30N 52°06' E 004°16'0 0.0
2014-Oct-23 00:30N 52°06' E 004°16'0 0.0
2014-Oct-22 23:33N 52°06' E 004°16'0 0.0
2014-Oct-22 22:33N 52°06' E 004°16'0 0.0
2014-Oct-22 21:33N 52°06' E 004°16'0 0.0
2014-Oct-22 20:33N 52°06' E 004°16'0 0.0
2014-Oct-22 19:30N 52°06' E 004°16'0 0.0
2014-Oct-22 18:30N 52°06' E 004°16'0 0.0
2014-Oct-22 17:27N 52°06' E 004°16'0 0.0
2014-Oct-22 16:30N 52°06' E 004°16'0 0.0
2014-Oct-22 15:30N 52°06' E 004°16'0 0.0
2014-Oct-22 14:30N 52°06' E 004°16'0 0.0
2014-Oct-22 13:33N 52°06' E 004°16'0 0.0
2014-Oct-22 12:33N 52°06' E 004°16'0 0.0
2014-Oct-22 11:30N 52°06' E 004°16'0 0.0
2014-Oct-22 10:33N 52°06' E 004°16'0 0.0
2014-Oct-22 09:24N 52°06' E 004°16'0 0.0
2014-Oct-22 08:33N 52°06' E 004°16'0 0.0
2014-Oct-22 07:33N 52°06' E 004°16'0 0.0
2014-Oct-22 06:30N 52°06' E 004°16'0 0.0
2014-Oct-22 05:30N 52°06' E 004°16'0 0.0
2014-Oct-22 04:33N 52°06' E 004°16'0 0.0
2014-Oct-22 03:30N 52°06' E 004°16'0 0.0
2014-Oct-22 02:33N 52°06' E 004°16'0 0.0
2014-Oct-22 01:24N 52°06' E 004°16'0 0.0
2014-Oct-22 00:30N 52°06' E 004°16'0 0.0
2014-Oct-21 23:33N 52°06' E 004°16'0 0.0
2014-Oct-21 22:33N 52°06' E 004°16'0 0.0
2014-Oct-21 21:33N 52°06' E 004°16'  

Dump ship's entire track history